sensor_id;sensor_type;location;lat;lon;timestamp;pressure;altitude;pressure_sealevel;temperature;humidity
13765;BME280;6953;48.810;9.204;2022-12-16T00:01:15;97545.69;;;1.47;96.97
13765;BME280;6953;48.810;9.204;2022-12-16T00:03:46;97561.13;;;1.48;97.47
13765;BME280;6953;48.810;9.204;2022-12-16T00:06:11;97286.88;;;-0.26;97.15
13765;BME280;6953;48.810;9.204;2022-12-16T00:08:38;97553.22;;;1.28;97.50
13765;BME280;6953;48.810;9.204;2022-12-16T00:11:04;97566.56;;;1.41;97.58
13765;BME280;6953;48.810;9.204;2022-12-16T00:13:31;97620.34;;;1.30;97.70
13765;BME280;6953;48.810;9.204;2022-12-16T00:15:57;97312.50;;;-0.21;97.74
13765;BME280;6953;48.810;9.204;2022-12-16T00:18:23;97498.00;;;0.84;98.11
13765;BME280;6953;48.810;9.204;2022-12-16T00:20:51;97553.28;;;1.27;98.36
13765;BME280;6953;48.810;9.204;2022-12-16T00:23:17;97603.91;;;1.32;98.49
13765;BME280;6953;48.810;9.204;2022-12-16T00:25:44;97602.03;;;1.36;98.59
13765;BME280;6953;48.810;9.204;2022-12-16T00:28:11;97547.97;;;1.31;98.48
13765;BME280;6953;48.810;9.204;2022-12-16T00:30:37;97564.97;;;1.37;98.46
13765;BME280;6953;48.810;9.204;2022-12-16T00:33:03;97567.56;;;1.37;98.52
13765;BME280;6953;48.810;9.204;2022-12-16T00:35:28;97573.53;;;1.39;98.39
13765;BME280;6953;48.810;9.204;2022-12-16T00:37:54;97603.47;;;1.44;98.20
13765;BME280;6953;48.810;9.204;2022-12-16T00:40:20;97563.03;;;1.43;98.27
13765;BME280;6953;48.810;9.204;2022-12-16T00:42:45;97485.69;;;0.92;98.29
13765;BME280;6953;48.810;9.204;2022-12-16T00:45:11;97570.22;;;1.35;98.54
13765;BME280;6953;48.810;9.204;2022-12-16T00:47:36;97559.41;;;1.24;97.89
13765;BME280;6953;48.810;9.204;2022-12-16T00:50:02;97569.16;;;1.16;98.06
13765;BME280;6953;48.810;9.204;2022-12-16T00:52:27;97460.25;;;0.57;97.88
13765;BME280;6953;48.810;9.204;2022-12-16T00:54:52;97587.75;;;1.26;98.15
13765;BME280;6953;48.810;9.204;2022-12-16T00:57:18;97595.81;;;1.17;98.33
13765;BME280;6953;48.810;9.204;2022-12-16T00:59:43;97574.41;;;1.13;97.81
13765;BME280;6953;48.810;9.204;2022-12-16T01:02:09;97517.19;;;0.77;98.07
13765;BME280;6953;48.810;9.204;2022-12-16T01:04:35;97309.72;;;-0.41;98.08
13765;BME280;6953;48.810;9.204;2022-12-16T01:07:02;97489.25;;;0.63;97.81
13765;BME280;6953;48.810;9.204;2022-12-16T01:09:28;97510.50;;;0.71;98.06
13765;BME280;6953;48.810;9.204;2022-12-16T01:11:53;97576.41;;;1.05;98.01
13765;BME280;6953;48.810;9.204;2022-12-16T01:14:19;97398.78;;;-0.08;97.51
13765;BME280;6953;48.810;9.204;2022-12-16T01:16:44;97601.50;;;1.02;98.31
13765;BME280;6953;48.810;9.204;2022-12-16T01:19:09;97525.72;;;0.53;98.12
13765;BME280;6953;48.810;9.204;2022-12-16T01:21:35;97615.22;;;1.02;97.91
13765;BME280;6953;48.810;9.204;2022-12-16T01:24:01;97329.47;;;-0.68;98.29
13765;BME280;6953;48.810;9.204;2022-12-16T01:26:26;97315.97;;;-0.76;98.32
13765;BME280;6953;48.810;9.204;2022-12-16T01:28:51;97631.22;;;0.88;98.68
13765;BME280;6953;48.810;9.204;2022-12-16T01:31:18;97614.41;;;1.02;98.67
13765;BME280;6953;48.810;9.204;2022-12-16T01:33:44;97612.56;;;1.05;98.77
13765;BME280;6953;48.810;9.204;2022-12-16T01:36:09;97637.34;;;1.11;98.58
13765;BME280;6953;48.810;9.204;2022-12-16T01:38:35;97607.44;;;1.04;98.42
13765;BME280;6953;48.810;9.204;2022-12-16T01:41:02;97602.63;;;0.94;98.46
13765;BME280;6953;48.810;9.204;2022-12-16T01:43:33;97541.13;;;0.54;99.08
13765;BME280;6953;48.810;9.204;2022-12-16T01:48:53;97621.31;;;1.02;98.79
13765;BME280;6953;48.810;9.204;2022-12-16T01:51:35;97532.56;;;0.54;98.69
13765;BME280;6953;48.810;9.204;2022-12-16T01:54:08;97630.59;;;1.07;98.81
13765;BME280;6953;48.810;9.204;2022-12-16T01:56:36;97634.06;;;1.06;98.96
13765;BME280;6953;48.810;9.204;2022-12-16T01:59:04;97454.19;;;-0.21;99.11
13765;BME280;6953;48.810;9.204;2022-12-16T02:01:29;97642.16;;;0.96;99.02
13765;BME280;6953;48.810;9.204;2022-12-16T02:03:57;97571.91;;;0.60;99.15
13765;BME280;6953;48.810;9.204;2022-12-16T02:06:26;97647.78;;;1.08;99.39
13765;BME280;6953;48.810;9.204;2022-12-16T02:08:54;97651.88;;;1.13;99.26
13765;BME280;6953;48.810;9.204;2022-12-16T02:11:53;97649.22;;;1.16;99.27
13765;BME280;6953;48.810;9.204;2022-12-16T02:14:53;97363.97;;;-0.46;98.77
13765;BME280;6953;48.810;9.204;2022-12-16T02:17:35;97653.38;;;1.20;99.01
13765;BME280;6953;48.810;9.204;2022-12-16T02:20:13;97375.09;;;-0.45;98.75
13765;BME280;6953;48.810;9.204;2022-12-16T02:23:04;97655.97;;;1.20;98.83
13765;BME280;6953;48.810;9.204;2022-12-16T02:36:10;97577.28;;;0.80;98.96
13765;BME280;6953;48.810;9.204;2022-12-16T02:38:48;97648.88;;;1.27;98.65
13765;BME280;6953;48.810;9.204;2022-12-16T02:41:53;97715.38;;;1.20;98.94
13765;BME280;6953;48.810;9.204;2022-12-16T02:47:12;97650.28;;;1.09;99.34
13765;BME280;6953;48.810;9.204;2022-12-16T02:49:55;97692.41;;;1.11;99.77
13765;BME280;6953;48.810;9.204;2022-12-16T02:52:24;97640.38;;;0.98;99.67
13765;BME280;6953;48.810;9.204;2022-12-16T02:54:56;97425.19;;;-0.28;99.46
13765;BME280;6953;48.810;9.204;2022-12-16T03:00:12;97377.41;;;-0.64;99.50
13765;BME280;6953;48.810;9.204;2022-12-16T03:02:46;97672.00;;;1.04;100.00
13765;BME280;6953;48.810;9.204;2022-12-16T03:05:32;97381.78;;;-0.67;99.64
13765;BME280;6953;48.810;9.204;2022-12-16T03:08:01;97680.44;;;1.09;99.88
13765;BME280;6953;48.810;9.204;2022-12-16T03:10:33;97680.34;;;1.12;100.00
13765;BME280;6953;48.810;9.204;2022-12-16T03:13:01;97639.56;;;0.96;100.00
13765;BME280;6953;48.810;9.204;2022-12-16T03:15:29;97680.19;;;1.16;99.89
13765;BME280;6953;48.810;9.204;2022-12-16T03:17:58;97678.53;;;1.14;99.71
13765;BME280;6953;48.810;9.204;2022-12-16T03:20:37;97714.56;;;1.18;99.93
13765;BME280;6953;48.810;9.204;2022-12-16T03:23:09;97681.66;;;1.23;99.80
13765;BME280;6953;48.810;9.204;2022-12-16T03:25:40;97678.19;;;1.24;99.67
13765;BME280;6953;48.810;9.204;2022-12-16T03:31:27;97687.25;;;1.11;99.61
13765;BME280;6953;48.810;9.204;2022-12-16T03:37:04;97412.91;;;-0.47;99.03
13765;BME280;6953;48.810;9.204;2022-12-16T03:39:35;97713.72;;;1.18;99.41
13765;BME280;6953;48.810;9.204;2022-12-16T03:42:02;97696.59;;;1.15;99.22
13765;BME280;6953;48.810;9.204;2022-12-16T03:44:28;97703.72;;;1.07;99.02
13765;BME280;6953;48.810;9.204;2022-12-16T03:46:53;97706.38;;;1.06;99.50
13765;BME280;6953;48.810;9.204;2022-12-16T03:49:20;97703.63;;;1.10;99.64
13765;BME280;6953;48.810;9.204;2022-12-16T03:51:46;97708.75;;;1.12;99.47
13765;BME280;6953;48.810;9.204;2022-12-16T03:54:11;97721.53;;;1.16;99.82
13765;BME280;6953;48.810;9.204;2022-12-16T03:56:37;97709.44;;;1.17;99.60
13765;BME280;6953;48.810;9.204;2022-12-16T03:59:02;97751.66;;;1.16;99.11
13765;BME280;6953;48.810;9.204;2022-12-16T04:01:27;97514.66;;;-0.04;99.19
13765;BME280;6953;48.810;9.204;2022-12-16T04:03:53;97719.22;;;1.07;98.76
13765;BME280;6953;48.810;9.204;2022-12-16T04:06:18;97707.44;;;0.99;99.30
13765;BME280;6953;48.810;9.204;2022-12-16T04:08:44;97751.78;;;1.11;98.73
13765;BME280;6953;48.810;9.204;2022-12-16T04:11:14;97751.72;;;1.13;99.58
13765;BME280;6953;48.810;9.204;2022-12-16T04:13:58;97728.41;;;1.16;99.09
13765;BME280;6953;48.810;9.204;2022-12-16T04:16:42;97643.31;;;0.60;98.68
13765;BME280;6953;48.810;9.204;2022-12-16T04:19:30;97729.44;;;1.10;98.60
13765;BME280;6953;48.810;9.204;2022-12-16T04:22:23;97757.81;;;1.12;98.49
13765;BME280;6953;48.810;9.204;2022-12-16T04:25:12;97717.28;;;0.87;98.17
13765;BME280;6953;48.810;9.204;2022-12-16T04:27:38;97778.09;;;0.97;98.86
13765;BME280;6953;48.810;9.204;2022-12-16T04:30:04;97648.81;;;0.48;98.85
13765;BME280;6953;48.810;9.204;2022-12-16T04:32:51;97752.03;;;1.04;98.53
13765;BME280;6953;48.810;9.204;2022-12-16T04:35:36;97751.16;;;1.03;98.74
13765;BME280;6953;48.810;9.204;2022-12-16T04:38:20;97694.69;;;0.67;98.87
13765;BME280;6953;48.810;9.204;2022-12-16T04:41:04;97677.81;;;0.56;98.47
13765;BME280;6953;48.810;9.204;2022-12-16T04:43:48;97745.41;;;0.68;98.42
13765;BME280;6953;48.810;9.204;2022-12-16T04:46:31;97791.88;;;0.96;98.53
13765;BME280;6953;48.810;9.204;2022-12-16T04:49:15;97716.22;;;0.66;98.92
13765;BME280;6953;48.810;9.204;2022-12-16T04:51:59;97697.88;;;0.46;98.31
13765;BME280;6953;48.810;9.204;2022-12-16T04:54:43;97773.75;;;0.97;98.49
13765;BME280;6953;48.810;9.204;2022-12-16T04:57:27;97678.97;;;0.46;98.53
13765;BME280;6953;48.810;9.204;2022-12-16T05:00:11;97722.84;;;0.75;98.27
13765;BME280;6953;48.810;9.204;2022-12-16T05:02:56;97715.34;;;0.66;98.45
13765;BME280;6953;48.810;9.204;2022-12-16T05:05:40;97491.38;;;-0.59;97.92
13765;BME280;6953;48.810;9.204;2022-12-16T05:08:24;97781.06;;;1.12;98.17
13765;BME280;6953;48.810;9.204;2022-12-16T05:11:08;97549.00;;;-0.63;97.58
13765;BME280;6953;48.810;9.204;2022-12-16T05:13:52;97527.84;;;-0.43;97.16
13765;BME280;6953;48.810;9.204;2022-12-16T05:16:36;97824.81;;;1.16;97.86
13765;BME280;6953;48.810;9.204;2022-12-16T05:19:20;97515.22;;;-0.52;97.48
13765;BME280;6953;48.810;9.204;2022-12-16T05:22:03;97831.03;;;1.11;97.95
13765;BME280;6953;48.810;9.204;2022-12-16T05:24:47;97795.59;;;1.14;98.14
13765;BME280;6953;48.810;9.204;2022-12-16T05:27:32;97796.59;;;1.10;97.60
13765;BME280;6953;48.810;9.204;2022-12-16T05:30:16;97514.53;;;-0.59;97.37
13765;BME280;6953;48.810;9.204;2022-12-16T05:32:59;97806.09;;;1.10;97.86
13765;BME280;6953;48.810;9.204;2022-12-16T05:35:44;97810.25;;;1.14;98.01
13765;BME280;6953;48.810;9.204;2022-12-16T05:38:27;97809.31;;;1.16;98.15
13765;BME280;6953;48.810;9.204;2022-12-16T05:41:11;97801.00;;;1.07;97.71
13765;BME280;6953;48.810;9.204;2022-12-16T05:43:55;97819.66;;;1.16;97.74
13765;BME280;6953;48.810;9.204;2022-12-16T05:46:39;97831.75;;;1.14;97.65
13765;BME280;6953;48.810;9.204;2022-12-16T05:49:23;97830.00;;;1.15;97.51
13765;BME280;6953;48.810;9.204;2022-12-16T05:52:06;97835.16;;;1.16;97.67
13765;BME280;6953;48.810;9.204;2022-12-16T05:54:50;97847.13;;;1.19;97.63
13765;BME280;6953;48.810;9.204;2022-12-16T05:57:34;97842.81;;;1.19;97.23
13765;BME280;6953;48.810;9.204;2022-12-16T06:00:18;97847.28;;;1.13;96.88
13765;BME280;6953;48.810;9.204;2022-12-16T06:03:01;97892.88;;;1.14;97.03
13765;BME280;6953;48.810;9.204;2022-12-16T06:05:46;97903.41;;;1.08;96.52
13765;BME280;6953;48.810;9.204;2022-12-16T06:08:29;97818.75;;;0.89;96.82
13765;BME280;6953;48.810;9.204;2022-12-16T06:11:13;97779.94;;;0.63;96.69
13765;BME280;6953;48.810;9.204;2022-12-16T06:13:57;97583.19;;;-0.58;96.58
13765;BME280;6953;48.810;9.204;2022-12-16T06:16:41;97801.59;;;0.59;96.26
13765;BME280;6953;48.810;9.204;2022-12-16T06:19:24;97799.16;;;0.53;96.72
13765;BME280;6953;48.810;9.204;2022-12-16T06:22:08;97604.66;;;-0.59;96.30
13765;BME280;6953;48.810;9.204;2022-12-16T06:24:52;97935.22;;;1.08;96.53
13765;BME280;6953;48.810;9.204;2022-12-16T06:27:36;97891.47;;;1.04;96.25
13765;BME280;6953;48.810;9.204;2022-12-16T06:30:19;97875.53;;;0.89;96.29
13765;BME280;6953;48.810;9.204;2022-12-16T06:33:03;97905.13;;;1.07;95.96
13765;BME280;6953;48.810;9.204;2022-12-16T06:35:47;97744.47;;;0.10;95.85
13765;BME280;6953;48.810;9.204;2022-12-16T06:38:31;97632.97;;;-0.59;95.58
13765;BME280;6953;48.810;9.204;2022-12-16T06:41:14;97915.50;;;1.06;95.59
13765;BME280;6953;48.810;9.204;2022-12-16T06:43:58;97942.06;;;1.09;95.30
13765;BME280;6953;48.810;9.204;2022-12-16T06:46:42;97925.84;;;1.06;94.76
13765;BME280;6953;48.810;9.204;2022-12-16T06:49:26;97670.44;;;-0.46;94.79
13765;BME280;6953;48.810;9.204;2022-12-16T06:52:10;97934.38;;;1.08;94.83
13765;BME280;6953;48.810;9.204;2022-12-16T06:54:54;97726.34;;;-0.17;95.17
13765;BME280;6953;48.810;9.204;2022-12-16T06:57:38;97641.69;;;-0.63;94.43
13765;BME280;6953;48.810;9.204;2022-12-16T07:00:21;97989.31;;;1.13;94.17
13765;BME280;6953;48.810;9.204;2022-12-16T07:03:05;97991.06;;;1.12;94.59
13765;BME280;6953;48.810;9.204;2022-12-16T07:05:53;97962.38;;;1.23;94.52
13765;BME280;6953;48.810;9.204;2022-12-16T07:08:37;97974.34;;;1.25;94.36
13765;BME280;6953;48.810;9.204;2022-12-16T07:11:21;97973.53;;;1.23;94.53
13765;BME280;6953;48.810;9.204;2022-12-16T07:14:05;97890.56;;;0.75;94.79
13765;BME280;6953;48.810;9.204;2022-12-16T07:16:49;97984.72;;;1.24;95.26
13765;BME280;6953;48.810;9.204;2022-12-16T07:19:33;97975.50;;;1.15;95.27
13765;BME280;6953;48.810;9.204;2022-12-16T07:22:16;97979.84;;;1.13;95.33
13765;BME280;6953;48.810;9.204;2022-12-16T07:25:00;97690.44;;;-0.57;95.34
13765;BME280;6953;48.810;9.204;2022-12-16T07:27:45;97784.97;;;0.06;95.42
13765;BME280;6953;48.810;9.204;2022-12-16T07:30:29;97969.38;;;1.18;95.43
13765;BME280;6953;48.810;9.204;2022-12-16T07:33:13;97922.69;;;0.95;95.24
13765;BME280;6953;48.810;9.204;2022-12-16T07:35:56;98003.19;;;1.41;94.80
13765;BME280;6953;48.810;9.204;2022-12-16T07:38:40;98000.69;;;1.38;94.27
13765;BME280;6953;48.810;9.204;2022-12-16T07:41:24;98010.03;;;1.42;94.23
13765;BME280;6953;48.810;9.204;2022-12-16T07:44:07;98036.75;;;1.42;93.44
13765;BME280;6953;48.810;9.204;2022-12-16T07:46:51;98022.88;;;1.45;93.18
13765;BME280;6953;48.810;9.204;2022-12-16T07:49:36;98027.09;;;1.47;92.77
13765;BME280;6953;48.810;9.204;2022-12-16T07:52:19;97746.00;;;-0.15;91.88
13765;BME280;6953;48.810;9.204;2022-12-16T07:55:04;97942.38;;;0.99;91.96
13765;BME280;6953;48.810;9.204;2022-12-16T07:57:49;98027.69;;;1.57;91.91
13765;BME280;6953;48.810;9.204;2022-12-16T08:00:33;98026.66;;;1.64;91.97
13765;BME280;6953;48.810;9.204;2022-12-16T08:03:17;98055.41;;;1.82;92.02
13765;BME280;6953;48.810;9.204;2022-12-16T08:06:01;98052.63;;;1.88;91.51
13765;BME280;6953;48.810;9.204;2022-12-16T08:08:45;98059.47;;;1.91;90.24
13765;BME280;6953;48.810;9.204;2022-12-16T08:11:29;97771.66;;;0.21;88.99
13765;BME280;6953;48.810;9.204;2022-12-16T08:14:13;98057.63;;;1.94;88.96
13765;BME280;6953;48.810;9.204;2022-12-16T08:16:57;98065.97;;;2.03;88.95
13765;BME280;6953;48.810;9.204;2022-12-16T08:19:40;97797.34;;;0.56;88.50
13765;BME280;6953;48.810;9.204;2022-12-16T08:22:24;98096.75;;;2.12;86.76
13765;BME280;6953;48.810;9.204;2022-12-16T08:25:08;98073.59;;;2.35;87.43
13765;BME280;6953;48.810;9.204;2022-12-16T08:27:55;98067.38;;;2.42;86.63
13765;BME280;6953;48.810;9.204;2022-12-16T08:30:39;98039.31;;;2.29;86.55
13765;BME280;6953;48.810;9.204;2022-12-16T08:33:23;97826.94;;;1.02;85.20
13765;BME280;6953;48.810;9.204;2022-12-16T08:36:07;98093.06;;;2.48;83.82
13765;BME280;6953;48.810;9.204;2022-12-16T08:38:51;98008.81;;;1.84;83.52
13765;BME280;6953;48.810;9.204;2022-12-16T08:41:34;98131.53;;;2.31;82.71
13765;BME280;6953;48.810;9.204;2022-12-16T08:44:38;97843.38;;;0.71;82.40
13765;BME280;6953;48.810;9.204;2022-12-16T08:47:22;97845.31;;;0.63;82.89
13765;BME280;6953;48.810;9.204;2022-12-16T08:50:06;98115.75;;;2.11;83.06
13765;BME280;6953;48.810;9.204;2022-12-16T08:52:50;98076.25;;;1.76;82.96
13765;BME280;6953;48.810;9.204;2022-12-16T08:55:34;97878.56;;;0.74;83.03
13765;BME280;6953;48.810;9.204;2022-12-16T08:58:17;98113.09;;;2.13;82.60
13765;BME280;6953;48.810;9.204;2022-12-16T09:01:01;97848.91;;;0.58;82.07
13765;BME280;6953;48.810;9.204;2022-12-16T09:03:45;98130.91;;;2.23;82.52
13765;BME280;6953;48.810;9.204;2022-12-16T09:06:29;98167.56;;;2.37;82.02
13765;BME280;6953;48.810;9.204;2022-12-16T09:09:13;97870.75;;;0.75;82.24
13765;BME280;6953;48.810;9.204;2022-12-16T09:11:56;98058.69;;;1.87;81.28
13765;BME280;6953;48.810;9.204;2022-12-16T09:14:40;98151.78;;;2.46;81.71
13765;BME280;6953;48.810;9.204;2022-12-16T09:17:24;98137.63;;;2.58;81.20
13765;BME280;6953;48.810;9.204;2022-12-16T09:20:09;98122.91;;;2.60;81.28
13765;BME280;6953;48.810;9.204;2022-12-16T09:22:53;98159.66;;;2.98;81.12
13765;BME280;6953;48.810;9.204;2022-12-16T09:25:36;98171.34;;;3.11;80.83
13765;BME280;6953;48.810;9.204;2022-12-16T09:28:20;98159.66;;;3.25;80.15
13765;BME280;6953;48.810;9.204;2022-12-16T09:31:04;97962.03;;;2.18;79.29
13765;BME280;6953;48.810;9.204;2022-12-16T09:33:48;98164.22;;;3.43;78.59
13765;BME280;6953;48.810;9.204;2022-12-16T09:36:32;98071.44;;;3.03;78.65
13765;BME280;6953;48.810;9.204;2022-12-16T09:39:16;98176.41;;;3.66;78.49
13765;BME280;6953;48.810;9.204;2022-12-16T09:42:01;98198.06;;;3.65;77.88
13765;BME280;6953;48.810;9.204;2022-12-16T09:45:05;98095.16;;;2.91;73.51
13765;BME280;6953;48.810;9.204;2022-12-16T09:48:11;97919.38;;;1.78;75.71
13765;BME280;6953;48.810;9.204;2022-12-16T09:51:02;98073.81;;;2.57;75.65
13765;BME280;6953;48.810;9.204;2022-12-16T09:53:49;97915.56;;;1.62;75.16
13765;BME280;6953;48.810;9.204;2022-12-16T09:56:35;98186.69;;;3.17;76.24
13765;BME280;6953;48.810;9.204;2022-12-16T09:59:24;98224.63;;;3.19;76.33
13765;BME280;6953;48.810;9.204;2022-12-16T10:02:11;98189.22;;;3.18;75.36
13765;BME280;6953;48.810;9.204;2022-12-16T10:04:55;98190.28;;;3.13;74.86
13765;BME280;6953;48.810;9.204;2022-12-16T10:07:42;98195.47;;;3.13;74.28
13765;BME280;6953;48.810;9.204;2022-12-16T10:10:39;98217.22;;;3.07;73.90
13765;BME280;6953;48.810;9.204;2022-12-16T10:13:58;97975.16;;;1.85;74.32
13765;BME280;6953;48.810;9.204;2022-12-16T10:20:11;98196.03;;;3.22;73.67
13765;BME280;6953;48.810;9.204;2022-12-16T10:23:32;98204.16;;;3.10;71.25
13765;BME280;6953;48.810;9.204;2022-12-16T10:26:39;98207.28;;;2.94;72.79
13765;BME280;6953;48.810;9.204;2022-12-16T10:29:27;98228.34;;;3.11;73.04
13765;BME280;6953;48.810;9.204;2022-12-16T10:32:44;98194.34;;;3.20;72.31
13765;BME280;6953;48.810;9.204;2022-12-16T10:35:35;98224.56;;;3.21;72.11
13765;BME280;6953;48.810;9.204;2022-12-16T10:38:38;97927.63;;;1.89;71.72
13765;BME280;6953;48.810;9.204;2022-12-16T10:41:27;98201.63;;;3.61;70.67
13765;BME280;6953;48.810;9.204;2022-12-16T10:44:22;98235.22;;;3.39;71.14
13765;BME280;6953;48.810;9.204;2022-12-16T10:47:08;98245.84;;;3.30;71.82
13765;BME280;6953;48.810;9.204;2022-12-16T10:49:54;97941.34;;;1.64;71.08
13765;BME280;6953;48.810;9.204;2022-12-16T10:53:12;98204.59;;;3.24;71.56
13765;BME280;6953;48.810;9.204;2022-12-16T10:59:07;98214.59;;;3.09;71.15
13765;BME280;6953;48.810;9.204;2022-12-16T11:01:59;98230.97;;;3.09;71.76
13765;BME280;6953;48.810;9.204;2022-12-16T11:04:45;98168.72;;;2.85;72.11
13765;BME280;6953;48.810;9.204;2022-12-16T11:07:48;98259.03;;;3.24;71.48
13765;BME280;6953;48.810;9.204;2022-12-16T11:10:38;97952.59;;;1.63;70.26
13765;BME280;6953;48.810;9.204;2022-12-16T11:13:29;98228.69;;;3.26;70.74
13765;BME280;6953;48.810;9.204;2022-12-16T11:19:27;98265.31;;;3.69;70.86
13765;BME280;6953;48.810;9.204;2022-12-16T11:22:16;98243.09;;;3.62;67.66
13765;BME280;6953;48.810;9.204;2022-12-16T11:27:48;98235.31;;;3.62;67.18
13765;BME280;6953;48.810;9.204;2022-12-16T11:30:32;98088.66;;;2.78;67.82
13765;BME280;6953;48.810;9.204;2022-12-16T11:33:22;97974.59;;;2.30;67.39
13765;BME280;6953;48.810;9.204;2022-12-16T11:36:17;98230.16;;;3.87;65.44
13765;BME280;6953;48.810;9.204;2022-12-16T11:39:03;98232.91;;;3.82;65.89
13765;BME280;6953;48.810;9.204;2022-12-16T11:41:51;97681.56;;;0.46;66.06
13765;BME280;6953;48.810;9.204;2022-12-16T11:44:45;98155.41;;;3.47;65.81
13765;BME280;6953;48.810;9.204;2022-12-16T11:47:54;98028.69;;;2.90;65.26
13765;BME280;6953;48.810;9.204;2022-12-16T11:50:48;98240.00;;;4.50;64.54
13765;BME280;6953;48.810;9.204;2022-12-16T11:53:46;98272.69;;;4.79;63.78
13765;BME280;6953;48.810;9.204;2022-12-16T11:56:34;98250.31;;;4.98;61.98
13765;BME280;6953;48.810;9.204;2022-12-16T12:05:05;98248.13;;;5.31;59.60
13765;BME280;6953;48.810;9.204;2022-12-16T12:11:35;98268.38;;;6.49;57.09
13765;BME280;6953;48.810;9.204;2022-12-16T12:21:23;98277.91;;;5.89;56.16
13765;BME280;6953;48.810;9.204;2022-12-16T12:27:09;98192.56;;;4.68;57.33
13765;BME280;6953;48.810;9.204;2022-12-16T12:30:01;97969.09;;;2.91;58.64
13765;BME280;6953;48.810;9.204;2022-12-16T12:42:16;98303.72;;;4.10;62.23
13765;BME280;6953;48.810;9.204;2022-12-16T12:48:16;98308.69;;;3.92;62.09
13765;BME280;6953;48.810;9.204;2022-12-16T12:51:08;98350.00;;;3.98;63.31
13765;BME280;6953;48.810;9.204;2022-12-16T12:54:09;98252.06;;;3.52;62.08
13765;BME280;6953;48.810;9.204;2022-12-16T12:56:59;98237.50;;;3.22;60.89
13765;BME280;6953;48.810;9.204;2022-12-16T13:02:42;98326.59;;;3.73;62.04
13765;BME280;6953;48.810;9.204;2022-12-16T13:05:30;98322.50;;;3.92;61.54
13765;BME280;6953;48.810;9.204;2022-12-16T13:11:22;98337.44;;;4.36;62.49
13765;BME280;6953;48.810;9.204;2022-12-16T13:17:20;98320.59;;;4.72;63.23
13765;BME280;6953;48.810;9.204;2022-12-16T13:26:21;98323.84;;;4.78;61.81
13765;BME280;6953;48.810;9.204;2022-12-16T13:29:26;98364.16;;;4.88;61.25
13765;BME280;6953;48.810;9.204;2022-12-16T13:38:05;98354.44;;;4.20;60.75
13765;BME280;6953;48.810;9.204;2022-12-16T13:44:11;98374.28;;;3.97;62.03
13765;BME280;6953;48.810;9.204;2022-12-16T13:46:55;98372.22;;;3.79;63.16
13765;BME280;6953;48.810;9.204;2022-12-16T13:49:46;98364.69;;;3.71;63.88
13765;BME280;6953;48.810;9.204;2022-12-16T13:52:47;98058.84;;;1.83;64.42
13765;BME280;6953;48.810;9.204;2022-12-16T13:55:41;98286.56;;;3.00;63.92
13765;BME280;6953;48.810;9.204;2022-12-16T13:58:47;98385.00;;;3.28;65.22
13765;BME280;6953;48.810;9.204;2022-12-16T14:01:47;98148.09;;;1.96;65.54
13765;BME280;6953;48.810;9.204;2022-12-16T14:04:38;98094.31;;;1.78;65.19
13765;BME280;6953;48.810;9.204;2022-12-16T14:07:24;98282.84;;;2.79;64.56
13765;BME280;6953;48.810;9.204;2022-12-16T14:10:27;98407.50;;;3.28;65.27
13765;BME280;6953;48.810;9.204;2022-12-16T14:25:56;98430.97;;;3.23;66.52
13765;BME280;6953;48.810;9.204;2022-12-16T14:28:41;98435.44;;;3.18;67.70
13765;BME280;6953;48.810;9.204;2022-12-16T14:31:33;98432.16;;;3.12;67.72
13765;BME280;6953;48.810;9.204;2022-12-16T14:34:27;98397.53;;;2.84;67.51
13765;BME280;6953;48.810;9.204;2022-12-16T14:39:56;98454.63;;;2.80;68.56
13765;BME280;6953;48.810;9.204;2022-12-16T14:42:40;98453.00;;;2.76;69.08
13765;BME280;6953;48.810;9.204;2022-12-16T14:45:30;98468.75;;;2.68;68.61
13765;BME280;6953;48.810;9.204;2022-12-16T14:54:22;98479.44;;;2.55;69.90
13765;BME280;6953;48.810;9.204;2022-12-16T14:57:15;98482.22;;;2.47;70.06
13765;BME280;6953;48.810;9.204;2022-12-16T15:03:16;98466.34;;;2.26;70.55
13765;BME280;6953;48.810;9.204;2022-12-16T15:06:04;98450.38;;;2.09;70.48
13765;BME280;6953;48.810;9.204;2022-12-16T15:08:51;98235.50;;;0.77;71.58
13765;BME280;6953;48.810;9.204;2022-12-16T15:11:38;98334.03;;;1.35;71.43
13765;BME280;6953;48.810;9.204;2022-12-16T15:14:30;98293.50;;;1.01;71.33
13765;BME280;6953;48.810;9.204;2022-12-16T15:17:19;98493.47;;;2.10;72.18
13765;BME280;6953;48.810;9.204;2022-12-16T15:20:05;98474.13;;;1.88;72.43
13765;BME280;6953;48.810;9.204;2022-12-16T15:22:49;98492.28;;;1.87;72.94
13765;BME280;6953;48.810;9.204;2022-12-16T15:25:34;98274.75;;;0.52;73.16
13765;BME280;6953;48.810;9.204;2022-12-16T15:28:37;98505.16;;;1.90;73.49
13765;BME280;6953;48.810;9.204;2022-12-16T15:31:36;98468.88;;;1.53;73.57
13765;BME280;6953;48.810;9.204;2022-12-16T15:34:36;98522.53;;;1.83;74.17
13765;BME280;6953;48.810;9.204;2022-12-16T15:37:29;98320.97;;;0.62;74.22
13765;BME280;6953;48.810;9.204;2022-12-16T15:40:27;98541.47;;;1.84;75.02
13765;BME280;6953;48.810;9.204;2022-12-16T15:43:26;98458.91;;;1.35;74.61
13765;BME280;6953;48.810;9.204;2022-12-16T15:46:22;98513.53;;;1.60;74.71
13765;BME280;6953;48.810;9.204;2022-12-16T15:49:31;98559.84;;;1.72;75.04
13765;BME280;6953;48.810;9.204;2022-12-16T15:55:39;98551.41;;;1.62;74.71
13765;BME280;6953;48.810;9.204;2022-12-16T15:58:32;98561.81;;;1.58;74.91
13765;BME280;6953;48.810;9.204;2022-12-16T16:01:22;98564.41;;;1.58;75.46
13765;BME280;6953;48.810;9.204;2022-12-16T16:04:28;98573.19;;;1.51;75.75
13765;BME280;6953;48.810;9.204;2022-12-16T16:07:19;98612.00;;;1.48;75.93
13765;BME280;6953;48.810;9.204;2022-12-16T16:12:59;98569.09;;;1.38;75.91
13765;BME280;6953;48.810;9.204;2022-12-16T16:15:44;98309.69;;;-0.24;76.21
13765;BME280;6953;48.810;9.204;2022-12-16T16:18:28;98596.69;;;1.37;76.25
13765;BME280;6953;48.810;9.204;2022-12-16T16:21:12;98606.09;;;1.40;76.44
13765;BME280;6953;48.810;9.204;2022-12-16T16:23:56;98635.50;;;1.33;77.08
13765;BME280;6953;48.810;9.204;2022-12-16T16:26:40;98630.34;;;1.34;77.27
13765;BME280;6953;48.810;9.204;2022-12-16T16:29:24;98562.06;;;1.01;76.62
13765;BME280;6953;48.810;9.204;2022-12-16T16:32:08;98315.94;;;-0.39;76.88
13765;BME280;6953;48.810;9.204;2022-12-16T16:34:52;98609.59;;;1.37;77.85
13765;BME280;6953;48.810;9.204;2022-12-16T16:37:36;98534.72;;;0.88;77.59
13765;BME280;6953;48.810;9.204;2022-12-16T16:40:37;98518.47;;;0.83;77.91
13765;BME280;6953;48.810;9.204;2022-12-16T16:43:22;98350.13;;;-0.28;77.97
13765;BME280;6953;48.810;9.204;2022-12-16T16:49:09;98546.75;;;0.89;79.21
13765;BME280;6953;48.810;9.204;2022-12-16T16:51:53;98621.06;;;1.23;79.38